Terminal Aerodrome Forecast
Issued by NWS

Home | Current Version | Previous Version | Text Only | Print | Product List | Glossary On
Versions: 1 2 3 4 5 6 7 8 9 10 11 12 13 14 15
000
FTUS44 KTSA 260900 AAA
TAFFYV
TAF AMD
KFYV 260910Z 2609/2706 01003KT P6SM BKN015
     FM261300 04009KT P6SM BKN012
     FM261800 05011KT P6SM SCT050 SCT250
     FM270000 05012KT P6SM OVC035 PROB30 2703/2706 -TSRA BKN025CB=

USA.gov is the U.S. government's official web portal to all federal, state and local government web resources and services.